createdAt,value
2023-04-22T00:00:55.003Z,12.31
2023-04-22T00:03:23.267Z,12.31
2023-04-22T00:05:50.811Z,12.27
2023-04-22T00:08:18.584Z,12.27
2023-04-22T00:10:45.971Z,12.30
2023-04-22T00:13:13.474Z,12.28
2023-04-22T00:15:40.787Z,12.23
2023-04-22T00:18:14.170Z,12.19
2023-04-22T00:20:46.127Z,12.19
2023-04-22T00:23:13.736Z,12.22
2023-04-22T00:25:41.406Z,12.16
2023-04-22T00:28:09.293Z,12.20
2023-04-22T00:30:36.866Z,12.15
2023-04-22T00:33:04.662Z,12.07
2023-04-22T00:35:31.965Z,12.00
2023-04-22T00:37:59.908Z,11.94
2023-04-22T00:40:27.369Z,11.89
2023-04-22T00:42:55.897Z,11.89
2023-04-22T00:45:23.210Z,11.77
2023-04-22T00:47:51.237Z,11.76
2023-04-22T00:50:18.792Z,11.67
2023-04-22T00:52:46.305Z,11.60
2023-04-22T00:55:13.765Z,11.59
2023-04-22T00:57:41.566Z,11.54
2023-04-22T01:00:10.453Z,11.51
2023-04-22T01:02:41.367Z,11.53
2023-04-22T01:05:10.320Z,11.51
2023-04-22T01:07:38.272Z,11.50
2023-04-22T01:10:06.650Z,11.50
2023-04-22T01:12:34.394Z,11.46
2023-04-22T01:15:04.684Z,11.47
2023-04-22T01:17:33.864Z,11.46
2023-04-22T01:20:05.525Z,11.44
2023-04-22T01:22:41.679Z,11.42
2023-04-22T01:25:13.128Z,11.42
2023-04-22T01:27:41.614Z,11.41
2023-04-22T01:30:11.054Z,11.37
2023-04-22T01:32:40.976Z,11.34
2023-04-22T01:35:10.273Z,11.28
2023-04-22T01:37:38.572Z,11.18
2023-04-22T01:40:07.916Z,11.02
2023-04-22T01:42:36.535Z,10.90
2023-04-22T01:45:04.738Z,10.95
2023-04-22T01:47:32.292Z,11.05
2023-04-22T01:49:59.706Z,11.13
2023-04-22T01:52:27.909Z,11.18
2023-04-22T01:54:55.755Z,11.17
2023-04-22T01:57:23.313Z,11.19
2023-04-22T01:59:50.619Z,11.14
2023-04-22T02:02:18.289Z,11.18
2023-04-22T02:04:45.628Z,11.18
2023-04-22T02:07:13.216Z,11.16
2023-04-22T02:09:41.121Z,11.14
2023-04-22T02:12:09.212Z,11.12
2023-04-22T02:14:36.492Z,11.12
2023-04-22T02:17:04.091Z,11.09
2023-04-22T02:19:31.360Z,11.11
2023-04-22T02:21:59.319Z,11.13
2023-04-22T02:24:26.945Z,11.11
2023-04-22T02:26:54.504Z,11.09
2023-04-22T02:29:21.794Z,11.09
2023-04-22T02:31:49.467Z,11.02
2023-04-22T02:34:16.893Z,11.03
2023-04-22T02:36:44.472Z,11.02
2023-04-22T02:39:11.778Z,11.03
2023-04-22T02:41:39.355Z,11.05
2023-04-22T02:44:06.726Z,11.07
2023-04-22T02:46:34.377Z,11.02
2023-04-22T02:49:01.710Z,10.92
2023-04-22T02:51:29.478Z,10.85
2023-04-22T02:53:56.778Z,10.69
2023-04-22T02:56:24.381Z,10.68
2023-04-22T02:58:51.644Z,10.71
2023-04-22T03:01:19.245Z,10.70
2023-04-22T03:03:46.785Z,10.71
2023-04-22T03:06:14.697Z,10.68
2023-04-22T03:08:41.935Z,10.65
2023-04-22T03:11:09.533Z,10.59
2023-04-22T03:13:36.804Z,10.57
2023-04-22T03:16:04.447Z,10.52
2023-04-22T03:18:32.032Z,10.46
2023-04-22T03:21:03.216Z,10.46
2023-04-22T03:23:30.625Z,10.43
2023-04-22T03:25:58.149Z,10.41
2023-04-22T03:28:25.572Z,10.44
2023-04-22T03:30:53.129Z,10.46
2023-04-22T03:33:21.092Z,10.39
2023-04-22T03:35:51.432Z,10.42
2023-04-22T03:38:18.742Z,10.45
2023-04-22T03:40:46.380Z,10.48
2023-04-22T03:43:13.796Z,10.60
2023-04-22T03:45:41.434Z,10.68
2023-04-22T03:48:09.038Z,10.68
2023-04-22T03:50:36.631Z,10.72
2023-04-22T03:53:03.877Z,10.73
2023-04-22T03:55:31.476Z,10.72
2023-04-22T03:57:58.985Z,10.70
2023-04-22T04:00:26.697Z,10.71
2023-04-22T04:02:54.214Z,10.79
2023-04-22T04:05:22.030Z,10.89
2023-04-22T04:07:49.322Z,10.86
2023-04-22T04:10:17.054Z,10.75
2023-04-22T04:12:44.331Z,10.84
2023-04-22T04:15:12.159Z,10.84
2023-04-22T04:17:39.923Z,10.75
2023-04-22T04:20:08.035Z,10.68
2023-04-22T04:22:35.360Z,10.57
2023-04-22T04:25:03.550Z,10.31
2023-04-22T04:27:30.825Z,10.26
2023-04-22T04:29:58.866Z,10.19
2023-04-22T04:32:26.165Z,10.04
2023-04-22T04:34:54.078Z,9.98
2023-04-22T04:37:22.495Z,9.88
2023-04-22T04:39:50.122Z,10.02
2023-04-22T04:42:17.499Z,10.04
2023-04-22T04:44:45.045Z,10.08
2023-04-22T04:47:13.224Z,10.10
2023-04-22T04:49:41.209Z,10.11
2023-04-22T04:52:11.462Z,10.12
2023-04-22T04:54:39.071Z,10.16
2023-04-22T04:57:06.977Z,10.18
2023-04-22T04:59:38.453Z,10.25
2023-04-22T05:02:06.125Z,10.32
2023-04-22T05:04:33.905Z,10.37
2023-04-22T05:07:01.723Z,10.45
2023-04-22T05:09:29.348Z,10.56
2023-04-22T05:11:56.697Z,10.56
2023-04-22T05:14:24.326Z,10.62
2023-04-22T05:16:51.904Z,10.67
2023-04-22T05:19:19.617Z,10.67
2023-04-22T05:21:46.904Z,10.61
2023-04-22T05:24:14.485Z,10.65
2023-04-22T05:26:42.161Z,10.75
2023-04-22T05:29:09.726Z,10.81
2023-04-22T05:31:36.998Z,10.90
2023-04-22T05:34:04.601Z,10.94
2023-04-22T05:36:32.178Z,10.77
2023-04-22T05:38:59.758Z,10.92
2023-04-22T05:41:27.047Z,10.95
2023-04-22T05:43:54.746Z,10.91
2023-04-22T05:46:22.185Z,11.06
2023-04-22T05:48:49.867Z,11.38
2023-04-22T05:51:17.255Z,11.56
2023-04-22T05:53:44.841Z,11.70
2023-04-22T05:56:12.113Z,11.79
2023-04-22T05:58:39.685Z,11.93
2023-04-22T06:01:06.953Z,12.03
2023-04-22T06:03:34.800Z,12.09
2023-04-22T06:06:02.188Z,12.18
2023-04-22T06:08:31.789Z,12.28
2023-04-22T06:10:59.146Z,12.31
2023-04-22T06:13:27.609Z,12.50
2023-04-22T06:15:55.049Z,12.63
2023-04-22T06:18:22.706Z,12.75
2023-04-22T06:20:50.500Z,12.88
2023-04-22T06:23:18.114Z,13.03
2023-04-22T06:25:45.555Z,13.18
2023-04-22T06:28:13.206Z,13.30
2023-04-22T06:30:40.560Z,13.50
2023-04-22T06:33:08.235Z,13.93
2023-04-22T06:35:35.702Z,15.38
2023-04-22T06:38:03.367Z,15.97
2023-04-22T06:40:30.789Z,16.97
2023-04-22T06:42:58.445Z,17.99
2023-04-22T06:45:25.836Z,18.79
2023-04-22T06:47:56.835Z,19.78
2023-04-22T06:50:24.170Z,20.43
2023-04-22T06:52:51.899Z,20.63
2023-04-22T06:55:19.259Z,21.40
2023-04-22T06:57:47.079Z,21.48
2023-04-22T07:00:14.896Z,21.07
2023-04-22T07:02:42.687Z,20.68
2023-04-22T07:05:10.120Z,20.09
2023-04-22T07:07:37.731Z,19.42
2023-04-22T07:10:06.258Z,19.15
2023-04-22T07:12:33.836Z,18.97
2023-04-22T07:15:01.117Z,18.81
2023-04-22T07:17:28.703Z,18.64
2023-04-22T07:19:56.062Z,18.45
2023-04-22T07:22:23.584Z,18.13
2023-04-22T07:24:50.962Z,17.92
2023-04-22T07:27:18.577Z,17.50
2023-04-22T07:29:45.866Z,17.00
2023-04-22T07:32:13.785Z,17.65
2023-04-22T07:34:41.929Z,17.95
2023-04-22T07:37:10.031Z,17.41
2023-04-22T07:39:37.561Z,17.71
2023-04-22T07:42:05.879Z,17.93
2023-04-22T07:44:33.100Z,18.01
2023-04-22T07:47:00.949Z,18.23
2023-04-22T07:49:28.385Z,18.51
2023-04-22T07:51:56.880Z,18.60
2023-04-22T07:54:24.155Z,18.64
2023-04-22T07:56:51.733Z,18.82
2023-04-22T07:59:19.009Z,18.99
2023-04-22T08:01:46.764Z,19.20
2023-04-22T08:04:14.283Z,19.19
2023-04-22T08:06:42.178Z,19.51
2023-04-22T08:09:10.670Z,19.83
2023-04-22T08:11:38.167Z,19.93
2023-04-22T08:14:05.473Z,20.23
2023-04-22T08:16:34.548Z,20.41
2023-04-22T08:19:01.855Z,20.57
2023-04-22T08:21:29.565Z,20.89
2023-04-22T08:23:57.283Z,21.18
2023-04-22T08:26:24.889Z,21.35
2023-04-22T08:28:52.248Z,21.81
2023-04-22T08:31:19.948Z,21.82
2023-04-22T08:33:47.297Z,22.07
2023-04-22T08:36:15.166Z,22.59
2023-04-22T08:38:42.490Z,22.15
2023-04-22T08:41:10.915Z,23.61
2023-04-22T08:43:38.715Z,24.17
2023-04-22T08:46:06.688Z,26.09
2023-04-22T08:48:33.984Z,26.81
2023-04-22T08:51:01.860Z,27.47
2023-04-22T08:53:29.614Z,30.26
2023-04-22T08:55:58.337Z,32.26
2023-04-22T08:58:27.304Z,33.23
2023-04-22T09:00:56.451Z,33.59
2023-04-22T09:03:24.480Z,36.78
2023-04-22T09:05:53.787Z,39.48
2023-04-22T09:08:21.922Z,41.66
2023-04-22T09:10:50.378Z,41.17
2023-04-22T09:13:18.318Z,44.37
2023-04-22T09:15:46.384Z,48.02
2023-04-22T09:18:19.137Z,48.35
2023-04-22T09:20:56.165Z,53.04
2023-04-22T09:23:23.541Z,54.33
2023-04-22T09:25:51.406Z,57.19
2023-04-22T09:28:19.672Z,57.90
2023-04-22T09:30:48.610Z,58.39
2023-04-22T09:33:17.829Z,61.05
2023-04-22T09:35:46.182Z,63.00
2023-04-22T09:38:13.840Z,64.02
2023-04-22T09:40:45.143Z,65.60
2023-04-22T09:43:19.893Z,64.64
2023-04-22T09:45:47.772Z,65.58
2023-04-22T09:48:20.007Z,65.90
2023-04-22T09:50:52.015Z,65.80
2023-04-22T09:53:21.932Z,64.78
2023-04-22T09:55:55.740Z,64.40
2023-04-22T09:58:28.033Z,66.49
2023-04-22T10:00:59.436Z,66.82
2023-04-22T10:03:26.835Z,67.38
2023-04-22T10:05:54.594Z,66.71
2023-04-22T10:08:21.973Z,67.38
2023-04-22T10:10:49.679Z,68.18
2023-04-22T10:13:17.191Z,67.98
2023-04-22T10:15:55.199Z,69.21
2023-04-22T10:18:26.422Z,65.34
2023-04-22T10:20:56.910Z,62.30
2023-04-22T10:23:25.626Z,65.02
2023-04-22T10:25:57.043Z,65.22
2023-04-22T10:28:30.849Z,67.93
2023-04-22T10:30:58.559Z,68.97
2023-04-22T10:33:29.093Z,69.68
2023-04-22T10:36:16.491Z,68.59
2023-04-22T10:38:56.482Z,70.37
2023-04-22T10:41:32.520Z,70.23
2023-04-22T10:44:09.710Z,68.57
2023-04-22T10:46:58.812Z,69.55
2023-04-22T10:49:30.393Z,66.01
2023-04-22T10:52:00.584Z,66.77
2023-04-22T10:54:31.570Z,66.95
2023-04-22T10:57:07.667Z,67.31
2023-04-22T10:59:50.516Z,68.17
2023-04-22T11:02:20.391Z,66.78
2023-04-22T11:04:50.028Z,66.04
2023-04-22T11:07:26.751Z,65.58
2023-04-22T11:10:07.866Z,65.02
2023-04-22T11:12:38.724Z,60.20
2023-04-22T11:15:23.190Z,59.42
2023-04-22T11:17:55.168Z,53.62
2023-04-22T11:20:23.058Z,52.50
2023-04-22T11:22:56.303Z,54.92
2023-04-22T11:25:26.123Z,52.28
2023-04-22T11:27:55.277Z,52.64
2023-04-22T11:30:26.551Z,50.58
2023-04-22T11:32:59.342Z,50.20
2023-04-22T11:35:32.733Z,48.55
2023-04-22T11:38:03.747Z,43.92
2023-04-22T11:40:38.344Z,42.92
2023-04-22T11:43:09.384Z,42.10
2023-04-22T11:45:39.349Z,42.00
2023-04-22T11:48:10.029Z,40.63
2023-04-22T11:50:44.282Z,39.64
2023-04-22T11:53:24.337Z,39.11
2023-04-22T11:55:52.960Z,38.74
2023-04-22T11:58:27.474Z,38.68
2023-04-22T12:00:57.825Z,37.24
2023-04-22T12:03:31.385Z,37.24
2023-04-22T12:06:06.478Z,37.18
2023-04-22T12:08:45.150Z,36.91
2023-04-22T12:11:13.596Z,36.53
2023-04-22T12:13:43.632Z,35.34
2023-04-22T12:16:13.748Z,33.07
2023-04-22T12:18:50.475Z,32.76
2023-04-22T12:21:25.574Z,31.11
2023-04-22T12:24:05.258Z,30.19
2023-04-22T12:26:32.801Z,28.97
2023-04-22T12:29:01.635Z,28.51
2023-04-22T12:31:29.236Z,28.25
2023-04-22T12:33:57.516Z,27.93
2023-04-22T12:36:25.373Z,27.68
2023-04-22T12:39:12.908Z,26.72
2023-04-22T12:41:40.155Z,27.34
2023-04-22T12:44:08.839Z,27.49
2023-04-22T12:46:36.410Z,27.88
2023-04-22T12:49:04.114Z,27.48
2023-04-22T12:51:31.984Z,27.39
2023-04-22T12:53:59.771Z,27.33
2023-04-22T12:56:27.121Z,26.39
2023-04-22T12:58:54.686Z,26.72
2023-04-22T13:01:22.025Z,26.34
2023-04-22T13:03:53.311Z,26.04
2023-04-22T13:06:20.827Z,26.59
2023-04-22T13:08:48.413Z,26.80
2023-04-22T13:11:15.734Z,26.76
2023-04-22T13:13:43.317Z,26.26
2023-04-22T13:16:11.215Z,26.12
2023-04-22T13:18:38.848Z,25.61
2023-04-22T13:21:06.480Z,25.04
2023-04-22T13:23:37.468Z,25.71
2023-04-22T13:26:04.922Z,25.30
2023-04-22T13:28:33.873Z,24.63
2023-04-22T13:31:01.975Z,25.50
2023-04-22T13:33:29.622Z,26.15
2023-04-22T13:35:59.266Z,26.32
2023-04-22T13:38:26.783Z,26.62
2023-04-22T13:40:54.116Z,26.43
2023-04-22T13:43:22.784Z,26.98
2023-04-22T13:45:50.191Z,26.23
2023-04-22T13:48:17.830Z,26.56
2023-04-22T13:50:45.141Z,27.02
2023-04-22T13:53:14.190Z,27.33
2023-04-22T13:55:43.362Z,27.16
2023-04-22T13:58:11.384Z,27.32
2023-04-22T14:00:38.736Z,27.32
2023-04-22T14:03:06.593Z,27.46
2023-04-22T14:05:34.061Z,27.63
2023-04-22T14:08:01.742Z,28.26
2023-04-22T14:10:28.994Z,28.87
2023-04-22T14:12:56.601Z,29.26
2023-04-22T14:15:25.481Z,29.80
2023-04-22T14:17:54.153Z,29.83
2023-04-22T14:20:22.087Z,30.11
2023-04-22T14:22:49.686Z,29.60
2023-04-22T14:25:16.974Z,28.68
2023-04-22T14:27:44.631Z,28.41
2023-04-22T14:30:13.231Z,28.07
2023-04-22T14:32:40.919Z,28.15
2023-04-22T14:35:08.543Z,27.40
2023-04-22T14:37:36.824Z,27.27
2023-04-22T14:40:04.886Z,27.34
2023-04-22T14:42:32.675Z,27.47
2023-04-22T14:45:00.246Z,27.51
2023-04-22T14:47:29.027Z,27.36
2023-04-22T14:49:56.412Z,26.93
2023-04-22T14:52:24.075Z,26.66
2023-04-22T14:54:52.189Z,26.50
2023-04-22T14:57:19.799Z,26.36
2023-04-22T14:59:47.471Z,26.12
2023-04-22T15:02:16.070Z,26.23
2023-04-22T15:04:44.855Z,26.08
2023-04-22T15:07:12.485Z,25.80
2023-04-22T15:09:40.278Z,25.65
2023-04-22T15:12:08.258Z,25.75
2023-04-22T15:14:36.714Z,25.90
2023-04-22T15:17:05.821Z,25.96
2023-04-22T15:19:33.490Z,25.93
2023-04-22T15:22:01.387Z,26.02
2023-04-22T15:24:28.974Z,25.93
2023-04-22T15:26:58.160Z,25.95
2023-04-22T15:29:25.828Z,25.91
2023-04-22T15:31:54.570Z,25.66
2023-04-22T15:34:22.428Z,25.68
2023-04-22T15:36:50.250Z,25.30
2023-04-22T15:39:17.701Z,25.41
2023-04-22T15:41:45.984Z,25.25
2023-04-22T15:44:14.762Z,25.21
2023-04-22T15:46:42.486Z,25.19
2023-04-22T15:49:09.958Z,24.67
2023-04-22T15:51:37.682Z,24.72
2023-04-22T15:54:05.108Z,24.88
2023-04-22T15:56:34.604Z,24.86
2023-04-22T15:59:01.924Z,24.92
2023-04-22T16:01:29.781Z,24.72
2023-04-22T16:03:57.613Z,23.63
2023-04-22T16:06:25.639Z,23.93
2023-04-22T16:08:53.070Z,23.68
2023-04-22T16:11:20.806Z,23.36
2023-04-22T16:13:48.295Z,23.31
2023-04-22T16:16:16.746Z,23.35
2023-04-22T16:18:44.586Z,23.61
2023-04-22T16:21:12.280Z,23.65
2023-04-22T16:23:39.584Z,23.58
2023-04-22T16:26:07.145Z,23.37
2023-04-22T16:28:34.392Z,23.29
2023-04-22T16:31:02.552Z,23.13
2023-04-22T16:33:29.982Z,23.16
2023-04-22T16:35:57.800Z,23.11
2023-04-22T16:38:25.200Z,22.89
2023-04-22T16:40:54.421Z,22.89
2023-04-22T16:43:22.118Z,22.87
2023-04-22T16:45:49.776Z,22.65
2023-04-22T16:48:17.304Z,22.53
2023-04-22T16:50:44.869Z,22.52
2023-04-22T16:53:12.356Z,22.02
2023-04-22T16:55:40.663Z,22.08
2023-04-22T16:58:07.969Z,22.35
2023-04-22T17:00:36.076Z,22.10
2023-04-22T17:03:04.058Z,21.99
2023-04-22T17:05:33.007Z,22.12
2023-04-22T17:08:00.501Z,22.04
2023-04-22T17:10:29.101Z,21.90
2023-04-22T17:12:56.552Z,21.97
2023-04-22T17:15:24.300Z,21.73
2023-04-22T17:17:51.767Z,21.73
2023-04-22T17:20:19.505Z,21.57
2023-04-22T17:22:46.894Z,21.89
2023-04-22T17:25:14.489Z,21.61
2023-04-22T17:27:41.818Z,21.73
2023-04-22T17:30:09.916Z,21.51
2023-04-22T17:32:37.257Z,21.34
2023-04-22T17:35:05.322Z,21.16
2023-04-22T17:37:32.643Z,21.14
2023-04-22T17:40:00.235Z,21.10
2023-04-22T17:42:38.826Z,20.89
2023-04-22T17:45:13.111Z,20.94
2023-04-22T17:47:40.437Z,20.81
2023-04-22T17:50:08.963Z,20.73
2023-04-22T17:52:36.442Z,20.61
2023-04-22T17:55:04.627Z,20.48
2023-04-22T17:57:35.079Z,20.45
2023-04-22T18:00:03.965Z,20.32
2023-04-22T18:02:31.726Z,20.15
2023-04-22T18:04:59.373Z,20.19
2023-04-22T18:07:26.639Z,20.02
2023-04-22T18:09:54.203Z,20.01
2023-04-22T18:12:24.214Z,19.82
2023-04-22T18:14:51.880Z,19.74
2023-04-22T18:17:21.739Z,19.65
2023-04-22T18:19:50.931Z,19.64
2023-04-22T18:22:19.484Z,19.67
2023-04-22T18:24:47.176Z,19.70
2023-04-22T18:27:14.486Z,19.47
2023-04-22T18:29:42.612Z,19.42
2023-04-22T18:32:11.415Z,19.39
2023-04-22T18:34:39.749Z,19.35
2023-04-22T18:37:07.423Z,19.17
2023-04-22T18:39:34.956Z,19.37
2023-04-22T18:42:02.750Z,19.24
2023-04-22T18:44:30.598Z,18.93
2023-04-22T18:46:58.495Z,18.64
2023-04-22T18:49:26.461Z,18.40
2023-04-22T18:51:53.823Z,18.32
2023-04-22T18:54:30.678Z,18.19
2023-04-22T18:56:58.340Z,18.07
2023-04-22T18:59:26.172Z,18.02
2023-04-22T19:01:53.600Z,17.91
2023-04-22T19:04:21.501Z,17.85
2023-04-22T19:06:50.720Z,17.83
2023-04-22T19:09:18.306Z,17.80
2023-04-22T19:11:46.172Z,17.75
2023-04-22T19:14:14.604Z,17.67
2023-04-22T19:16:43.136Z,17.65
2023-04-22T19:19:12.014Z,17.68
2023-04-22T19:21:39.799Z,17.60
2023-04-22T19:24:07.942Z,17.60
2023-04-22T19:26:35.779Z,17.61
2023-04-22T19:29:03.460Z,17.64
2023-04-22T19:31:31.649Z,17.53
2023-04-22T19:33:59.533Z,17.60
2023-04-22T19:36:27.101Z,17.50
2023-04-22T19:38:54.721Z,17.47
2023-04-22T19:41:22.386Z,17.42
2023-04-22T19:43:49.942Z,17.41
2023-04-22T19:46:17.292Z,17.35
2023-04-22T19:48:45.279Z,17.32
2023-04-22T19:51:12.834Z,17.28
2023-04-22T19:53:41.555Z,17.24
2023-04-22T19:56:09.656Z,17.18
2023-04-22T19:58:38.968Z,17.09
2023-04-22T20:01:06.624Z,17.02
2023-04-22T20:03:35.329Z,17.05
2023-04-22T20:06:03.850Z,16.97
2023-04-22T20:08:31.941Z,16.93
2023-04-22T20:11:00.723Z,16.81
2023-04-22T20:13:28.667Z,16.88
2023-04-22T20:15:56.300Z,16.86
2023-04-22T20:18:24.227Z,16.78
2023-04-22T20:20:57.347Z,16.70
2023-04-22T20:23:27.930Z,16.69
2023-04-22T20:25:58.906Z,16.66
2023-04-22T20:28:46.060Z,16.55
2023-04-22T20:31:16.707Z,16.59
2023-04-22T20:33:45.006Z,16.56
2023-04-22T20:36:16.861Z,16.48
2023-04-22T20:38:48.813Z,16.47
2023-04-22T20:41:20.224Z,16.46
2023-04-22T20:43:47.928Z,16.35
2023-04-22T20:46:15.215Z,16.26
2023-04-22T20:48:42.895Z,16.26
2023-04-22T20:51:10.209Z,16.23
2023-04-22T20:53:38.238Z,16.09
2023-04-22T20:56:06.116Z,16.14
2023-04-22T20:58:33.686Z,16.03
2023-04-22T21:01:01.191Z,16.08
2023-04-22T21:03:29.933Z,16.03
2023-04-22T21:05:58.508Z,15.96
2023-04-22T21:08:27.241Z,15.96
2023-04-22T21:10:56.781Z,15.91
2023-04-22T21:13:24.712Z,15.88
2023-04-22T21:16:08.309Z,15.85
2023-04-22T21:18:40.815Z,15.84
2023-04-22T21:21:10.099Z,15.80
2023-04-22T21:23:40.368Z,15.75
2023-04-22T21:26:10.550Z,15.74
2023-04-22T21:28:39.242Z,15.63
2023-04-22T21:31:07.404Z,15.53
2023-04-22T21:33:35.015Z,15.62
2023-04-22T21:36:02.465Z,15.60
2023-04-22T21:38:30.125Z,15.54
2023-04-22T21:40:57.453Z,15.54
2023-04-22T21:43:24.925Z,15.50
2023-04-22T21:45:52.157Z,15.52
2023-04-22T21:48:19.701Z,15.42
2023-04-22T21:50:47.035Z,15.47
2023-04-22T21:53:14.770Z,15.40
2023-04-22T21:55:42.148Z,15.43
2023-04-22T21:58:09.741Z,15.40
2023-04-22T22:00:37.986Z,15.30
2023-04-22T22:03:06.483Z,15.28
2023-04-22T22:05:33.909Z,15.32
2023-04-22T22:08:01.941Z,15.24
2023-04-22T22:10:29.501Z,15.22
2023-04-22T22:12:57.113Z,15.20
2023-04-22T22:15:24.512Z,15.17
2023-04-22T22:17:52.249Z,15.07
2023-04-22T22:20:22.591Z,15.08
2023-04-22T22:22:50.258Z,15.09
2023-04-22T22:25:18.408Z,15.16
2023-04-22T22:27:47.171Z,15.17
2023-04-22T22:30:17.044Z,15.09
2023-04-22T22:32:45.471Z,15.02
2023-04-22T22:35:13.217Z,15.05
2023-04-22T22:37:41.853Z,15.04
2023-04-22T22:40:10.241Z,14.95
2023-04-22T22:42:37.840Z,15.00
2023-04-22T22:45:05.754Z,14.99
2023-04-22T22:47:33.536Z,15.00
2023-04-22T22:50:00.880Z,14.96
2023-04-22T22:52:28.731Z,14.82
2023-04-22T22:54:56.020Z,14.85
2023-04-22T22:57:23.563Z,14.81
2023-04-22T22:59:50.869Z,14.81
2023-04-22T23:02:18.631Z,14.82
2023-04-22T23:04:46.328Z,14.83
2023-04-22T23:07:14.832Z,14.81
2023-04-22T23:09:42.373Z,14.70
2023-04-22T23:12:09.918Z,14.79
2023-04-22T23:14:37.161Z,14.70
2023-04-22T23:17:04.854Z,14.77
2023-04-22T23:19:33.785Z,14.74
2023-04-22T23:22:02.369Z,14.61
2023-04-22T23:24:30.006Z,14.63
2023-04-22T23:26:57.876Z,14.55
2023-04-22T23:29:25.497Z,14.52
2023-04-22T23:31:53.514Z,14.50
2023-04-22T23:34:25.878Z,14.26
2023-04-22T23:36:57.118Z,14.12
2023-04-22T23:39:24.665Z,14.25
2023-04-22T23:41:52.135Z,14.24
2023-04-22T23:44:19.464Z,14.15
2023-04-22T23:46:48.143Z,14.16
2023-04-22T23:49:15.951Z,14.07
2023-04-22T23:51:43.904Z,14.03
2023-04-22T23:54:11.185Z,14.08
2023-04-22T23:56:39.237Z,14.05
2023-04-22T23:59:07.280Z,13.94
